CFP YRED-YCDR

Flight info

Callsign CFP
Flight time N/A
Altitude 4000
Route YCDR
Aircraft BE36/L-BDFGLORY/S

Departure

Time 2026-04-28 22:43
Airport Redcliffe Airport (YRED)

Arrival

Time N/A
Airport Caloundra Airport (YCDR)
Time Latitude Longitude Altitude Speed Heading
2026-04-28 22:38 -27.20692 153.06595 5 ft 0 kts 34°
2026-04-28 22:39 -27.20691 153.06596 5 ft 2 kts 24°
2026-04-28 22:39 -27.20682 153.06596 6 ft 2 kts 333°
2026-04-28 22:40 -27.20670 153.06569 6 ft 6 kts 333°
2026-04-28 22:40 -27.20628 153.06535 6 ft 9 kts 253°
2026-04-28 22:40 -27.20648 153.06476 6 ft 9 kts 246°
2026-04-28 22:40 -27.20644 153.06453 6 ft 0 kts 333°
2026-04-28 22:41 -27.20641 153.06452 6 ft 1 kts 354°
2026-04-28 22:41 -27.20634 153.06454 7 ft 0 kts 32°
2026-04-28 22:41 -27.20636 153.06484 7 ft 6 kts 98°
2026-04-28 22:41 -27.20607 153.06649 5 ft 53 kts 76°
2026-04-28 22:42 -27.20450 153.07271 53 ft 103 kts 78°
2026-04-28 22:42 -27.20081 153.07778 291 ft 117 kts 26°
2026-04-28 22:42 -27.19670 153.07860 427 ft 128 kts 355°
2026-04-28 22:42 -27.19249 153.07696 567 ft 132 kts 317°
2026-04-28 22:43 -27.19085 153.07256 730 ft 126 kts 261°
2026-04-28 22:43 -27.19114 153.06742 768 ft 139 kts 260°
2026-04-28 22:43 -27.19164 153.06178 838 ft 149 kts 258°
2026-04-28 22:43 -27.19228 153.05621 940 ft 136 kts 256°
2026-04-28 22:44 -27.19278 153.05125 964 ft 117 kts 257°
2026-04-28 22:44 -27.19326 153.04699 933 ft 104 kts 245°
2026-04-28 22:44 -27.19520 153.04407 911 ft 90 kts 198°
2026-04-28 22:44 -27.19821 153.04351 784 ft 87 kts 181°
2026-04-28 22:45 -27.20132 153.04339 630 ft 94 kts 181°
2026-04-28 22:45 -27.20460 153.04361 540 ft 96 kts 167°
2026-04-28 22:45 -27.20721 153.04585 524 ft 101 kts 130°
2026-04-28 22:45 -27.20839 153.04972 414 ft 104 kts 105°
2026-04-28 22:46 -27.20845 153.05347 299 ft 90 kts 92°
2026-04-28 22:46 -27.20791 153.05690 195 ft 90 kts 87°
2026-04-28 22:46 -27.20721 153.06032 74 ft 90 kts 80°
2026-04-28 22:46 -27.20643 153.06380 97 ft 93 kts 81°
2026-04-28 22:47 -27.20559 153.06754 164 ft 105 kts 86°
2026-04-28 22:47 -27.20479 153.07112 483 ft 87 kts 82°
2026-04-28 22:47 -27.20336 153.07505 657 ft 101 kts 62°
2026-04-28 22:47 -27.20037 153.07739 764 ft 113 kts 11°
2026-04-28 22:48 -27.19625 153.07703 845 ft 128 kts 353°
2026-04-28 22:48 -27.19149 153.07631 885 ft 143 kts 347°
2026-04-28 22:48 -27.18756 153.07343 1079 ft 138 kts 297°
2026-04-28 22:48 -27.18641 153.06815 1026 ft 150 kts 271°
2026-04-28 22:49 -27.18563 153.06215 1056 ft 160 kts 272°
2026-04-28 22:49 -27.18418 153.05610 1149 ft 166 kts 292°
2026-04-28 22:49 -27.18085 153.05082 1266 ft 168 kts 316°
2026-04-28 22:49 -27.17587 153.04736 1375 ft 170 kts 342°
2026-04-28 22:50 -27.17004 153.04654 1471 ft 169 kts
2026-04-28 22:50 -27.16410 153.04682 1570 ft 174 kts
2026-04-28 22:50 -27.15806 153.04740 1678 ft 175 kts 10°
2026-04-28 22:50 -27.15201 153.04838 1801 ft 175 kts 15°
2026-04-28 22:51 -27.14613 153.04988 1943 ft 172 kts 21°
2026-04-28 22:51 -27.14059 153.05204 2050 ft 171 kts 28°
2026-04-28 22:51 -27.13507 153.05462 2135 ft 173 kts 30°
2026-04-28 22:51 -27.12958 153.05740 2253 ft 172 kts 32°
2026-04-28 22:52 -27.12429 153.06030 2420 ft 168 kts 32°
2026-04-28 22:52 -27.11916 153.06329 2568 ft 165 kts 36°
2026-04-28 22:52 -27.11423 153.06652 2685 ft 164 kts 37°
2026-04-28 22:52 -27.10934 153.06983 2781 ft 164 kts 39°
2026-04-28 22:53 -27.10450 153.07331 2867 ft 167 kts 41°
2026-04-28 22:53 -27.09991 153.07711 2960 ft 166 kts 47°
2026-04-28 22:53 -27.09574 153.08151 3075 ft 164 kts 52°
2026-04-28 22:53 -27.09151 153.08582 3171 ft 166 kts 47°
2026-04-28 22:54 -27.08703 153.09008 3173 ft 169 kts 48°
2026-04-28 22:54 -27.08266 153.09433 3178 ft 164 kts 50°
2026-04-28 22:54 -27.07781 153.09746 3299 ft 162 kts 20°
2026-04-28 22:54 -27.07210 153.09756 3251 ft 170 kts
2026-04-28 22:55 -27.06597 153.09687 3009 ft 178 kts 351°
2026-04-28 22:55 -27.06041 153.09475 2914 ft 167 kts 342°
2026-04-28 22:55 -27.05547 153.09171 2816 ft 157 kts 322°
2026-04-28 22:55 -27.05144 153.08767 2543 ft 158 kts 320°
2026-04-28 22:56 -27.04704 153.08366 2270 ft 165 kts 320°
2026-04-28 22:56 -27.04282 153.07932 2049 ft 163 kts 314°
2026-04-28 22:56 -27.03879 153.07497 1880 ft 157 kts 315°
2026-04-28 22:56 -27.03477 153.07083 1644 ft 159 kts 317°
2026-04-28 22:57 -27.03052 153.06664 1258 ft 169 kts 315°
2026-04-28 22:57 -27.02692 153.06219 940 ft 160 kts 301°
2026-04-28 22:57 -27.02530 153.05686 890 ft 129 kts 259°
2026-04-28 22:57 -27.02681 153.05306 905 ft 97 kts 210°
2026-04-28 22:58 -27.02977 153.05166 753 ft 93 kts 186°
2026-04-28 22:58 -27.03305 153.05150 551 ft 96 kts 180°
2026-04-28 22:58 -27.03638 153.05150 353 ft 95 kts 179°
2026-04-28 22:58 -27.03959 153.05150 201 ft 85 kts 180°
2026-04-28 22:59 -27.04227 153.05152 78 ft 70 kts 180°
2026-04-28 22:59 -27.04443 153.05144 14 ft 53 kts 178°
2026-04-28 22:59 -27.04572 153.05152 14 ft 13 kts 177°
2026-04-28 22:59 -27.04578 153.05152 14 ft 0 kts 177°